Time;durP1;ratioP1;P1;durP2;ratioP2;P2;SDS_P1;SDS_P2;PMS_P1;PMS_P2;Temp;Humidity;BMP_temperature;BMP_pressure;BME280_temperature;BME280_humidity;BME280_pressure;Samples;Min_cycle;Max_cycle;Signal;HPM_P1;HPM_P2
2023/10/06 00:00:59;;;;;;;;;16.00;14.00;;;;;;;;5078029;27;45587;-45
2023/10/06 00:03:25;;;;;;;;;19.67;13.67;;;;;;;;5076136;27;45524;-46
2023/10/06 00:05:50;;;;;;;;;16.33;16.00;;;;;;;;5077774;27;46127;-44
2023/10/06 00:08:20;;;;;;;;;14.33;12.67;;;;;;;;5074966;27;45440;-44
2023/10/06 00:10:53;;;;;;;;;19.33;16.00;;;;;;;;5077313;28;45532;-45
2023/10/06 00:13:19;;;;;;;;;13.00;11.67;;;;;;;;5075849;28;45521;-44
2023/10/06 00:15:45;;;;;;;;;17.33;15.33;;;;;;;;5076287;27;46183;-45
2023/10/06 00:18:16;;;;;;;;;15.00;14.67;;;;;;;;5076181;28;45483;-44
2023/10/06 00:20:57;;;;;;;;;11.33;10.67;;;;;;;;5079014;27;45374;-44
2023/10/06 00:23:23;;;;;;;;;14.67;14.67;;;;;;;;5077019;28;45354;-44
2023/10/06 00:25:52;;;;;;;;;16.67;13.33;;;;;;;;5076121;27;45691;-45
2023/10/06 00:28:26;;;;;;;;;14.00;14.00;;;;;;;;5073998;28;45401;-46
2023/10/06 00:30:58;;;;;;;;;15.00;12.67;;;;;;;;5079595;28;45487;-47
2023/10/06 00:33:26;;;;;;;;;14.33;12.33;;;;;;;;5073038;28;45686;-44
2023/10/06 00:35:52;;;;;;;;;19.33;16.00;;;;;;;;5078759;28;45559;-47
2023/10/06 00:38:17;;;;;;;;;19.67;16.67;;;;;;;;5078032;28;45390;-45
2023/10/06 00:40:50;;;;;;;;;12.67;11.00;;;;;;;;5078089;28;45241;-46
2023/10/06 00:43:21;;;;;;;;;19.33;15.67;;;;;;;;5074502;27;45875;-45
2023/10/06 00:45:47;;;;;;;;;15.33;13.33;;;;;;;;5074413;28;46213;-45
2023/10/06 00:48:15;;;;;;;;;14.33;13.33;;;;;;;;5078390;27;45528;-45
2023/10/06 00:50:43;;;;;;;;;13.33;13.33;;;;;;;;5078011;28;45345;-44
2023/10/06 00:53:13;;;;;;;;;11.67;11.00;;;;;;;;5074832;28;45323;-44
2023/10/06 00:55:39;;;;;;;;;11.67;11.67;;;;;;;;5076286;28;45402;-44
2023/10/06 00:58:05;;;;;;;;;14.67;13.67;;;;;;;;5078324;28;45472;-43
2023/10/06 01:00:37;;;;;;;;;13.67;13.00;;;;;;;;5077795;27;45235;-45
2023/10/06 01:03:09;;;;;;;;;14.67;14.67;;;;;;;;5081234;27;45290;-43
2023/10/06 01:05:34;;;;;;;;;15.33;12.67;;;;;;;;5078231;27;46052;-45
2023/10/06 01:08:00;;;;;;;;;17.00;15.00;;;;;;;;5081496;27;45622;-44
2023/10/06 01:10:28;;;;;;;;;14.33;13.00;;;;;;;;5080885;27;45690;-46
2023/10/06 01:12:54;;;;;;;;;14.33;11.00;;;;;;;;5081037;27;45410;-44
2023/10/06 01:15:20;;;;;;;;;15.67;11.67;;;;;;;;5078659;27;46917;-46
2023/10/06 01:17:46;;;;;;;;;13.00;10.33;;;;;;;;5078283;27;45427;-46
2023/10/06 01:20:15;;;;;;;;;7.00;7.00;;;;;;;;5080034;27;45504;-44
2023/10/06 01:22:44;;;;;;;;;13.50;13.50;;;;;;;;5077785;27;45496;-44
2023/10/06 01:25:20;;;;;;;;;11.33;11.33;;;;;;;;5074234;28;46152;-44
2023/10/06 01:27:46;;;;;;;;;14.33;12.33;;;;;;;;5077227;27;45480;-44
2023/10/06 01:30:18;;;;;;;;;17.67;12.00;;;;;;;;5078687;27;45444;-43
2023/10/06 01:32:46;;;;;;;;;14.67;13.67;;;;;;;;5077098;27;45497;-45
2023/10/06 01:35:12;;;;;;;;;13.00;10.67;;;;;;;;5075724;27;47029;-45
2023/10/06 01:38:00;;;;;;;;;11.00;9.00;;;;;;;;5078313;27;45405;-45
2023/10/06 01:42:54;;;;;;;;;16.67;14.33;;;;;;;;5078124;27;45449;-43
2023/10/06 01:45:21;;;;;;;;;15.00;13.00;;;;;;;;5079319;27;46112;-43
2023/10/06 01:47:47;;;;;;;;;13.33;10.00;;;;;;;;5077277;27;46721;-43
2023/10/06 01:50:13;;;;;;;;;18.33;12.33;;;;;;;;5081690;27;45291;-43
2023/10/06 01:52:39;;;;;;;;;15.67;14.33;;;;;;;;5080092;28;45611;-44
2023/10/06 01:55:21;;;;;;;;;11.67;10.33;;;;;;;;5085019;27;46148;-44
2023/10/06 01:57:47;;;;;;;;;11.00;11.00;;;;;;;;5079947;27;45486;-45
2023/10/06 02:00:16;;;;;;;;;15.00;12.67;;;;;;;;5081917;27;45294;-43
2023/10/06 02:02:41;;;;;;;;;18.33;15.67;;;;;;;;5080709;27;45801;-43
2023/10/06 02:05:12;;;;;;;;;14.00;11.67;;;;;;;;5081504;27;45994;-47
2023/10/06 02:07:40;;;;;;;;;12.67;11.67;;;;;;;;5080881;27;45212;-44
2023/10/06 02:10:11;;;;;;;;;12.33;10.33;;;;;;;;5082346;27;45485;-44
2023/10/06 02:12:37;;;;;;;;;17.33;11.00;;;;;;;;5083083;27;45886;-43
2023/10/06 02:15:10;;;;;;;;;11.00;9.33;;;;;;;;5080719;27;45991;-44
2023/10/06 02:17:36;;;;;;;;;14.33;13.33;;;;;;;;5081024;27;45360;-44
2023/10/06 02:20:01;;;;;;;;;13.67;13.67;;;;;;;;5081847;27;45457;-43
2023/10/06 02:22:27;;;;;;;;;14.33;12.67;;;;;;;;5081739;27;45570;-46
2023/10/06 02:24:52;;;;;;;;;14.67;14.33;;;;;;;;5081032;27;46102;-45
2023/10/06 02:27:17;;;;;;;;;15.67;12.67;;;;;;;;5080674;27;45239;-44
2023/10/06 02:29:43;;;;;;;;;15.00;15.00;;;;;;;;5081992;27;45319;-44
2023/10/06 02:32:08;;;;;;;;;12.67;12.67;;;;;;;;5082893;27;45552;-45
2023/10/06 02:34:38;;;;;;;;;16.00;14.00;;;;;;;;5078389;27;46132;-46
2023/10/06 02:37:06;;;;;;;;;15.67;12.33;;;;;;;;5079332;27;45504;-43
2023/10/06 02:39:34;;;;;;;;;14.00;14.00;;;;;;;;5082656;27;45435;-48
2023/10/06 02:42:09;;;;;;;;;14.67;11.67;;;;;;;;5082560;27;45457;-47
2023/10/06 02:44:38;;;;;;;;;13.67;11.67;;;;;;;;5079465;27;46906;-45
2023/10/06 02:47:04;;;;;;;;;13.67;12.00;;;;;;;;5081554;27;45512;-44
2023/10/06 02:49:35;;;;;;;;;12.33;9.00;;;;;;;;5081746;27;45335;-44
2023/10/06 02:52:00;;;;;;;;;13.00;13.00;;;;;;;;5084824;27;45458;-44
2023/10/06 02:54:28;;;;;;;;;14.00;11.67;;;;;;;;5079636;27;45350;-43
2023/10/06 02:56:55;;;;;;;;;16.00;13.00;;;;;;;;5082768;27;45393;-44
2023/10/06 02:59:20;;;;;;;;;17.33;14.33;;;;;;;;5080618;27;45377;-44
2023/10/06 03:01:52;;;;;;;;;13.00;10.67;;;;;;;;5082817;27;45270;-43
2023/10/06 03:04:21;;;;;;;;;13.33;13.33;;;;;;;;5080152;27;46460;-45
2023/10/06 03:06:53;;;;;;;;;16.33;15.00;;;;;;;;5082254;27;45579;-44
2023/10/06 03:09:18;;;;;;;;;14.00;13.33;;;;;;;;5080739;27;45365;-45
2023/10/06 03:11:49;;;;;;;;;12.67;7.33;;;;;;;;5080329;27;45417;-45
2023/10/06 03:14:14;;;;;;;;;14.00;13.67;;;;;;;;5078924;28;46157;-48
2023/10/06 03:16:42;;;;;;;;;12.33;12.33;;;;;;;;5084173;27;45799;-46
2023/10/06 03:19:12;;;;;;;;;7.67;7.67;;;;;;;;5078020;27;45593;-46
2023/10/06 03:21:39;;;;;;;;;12.67;12.67;;;;;;;;5080290;27;45549;-44
2023/10/06 03:24:06;;;;;;;;;13.00;10.33;;;;;;;;5080945;27;46065;-45
2023/10/06 03:26:34;;;;;;;;;9.33;9.33;;;;;;;;5078503;28;45349;-44
2023/10/06 03:29:03;;;;;;;;;13.00;12.00;;;;;;;;5083219;27;45300;-45
2023/10/06 03:31:46;;;;;;;;;12.33;10.67;;;;;;;;5078340;27;45338;-44
2023/10/06 03:34:15;;;;;;;;;11.67;11.00;;;;;;;;5082399;27;45472;-43
2023/10/06 03:36:47;;;;;;;;;12.00;10.00;;;;;;;;5080506;27;45422;-43
2023/10/06 03:39:13;;;;;;;;;10.00;8.33;;;;;;;;5078241;27;45367;-45
2023/10/06 03:41:41;;;;;;;;;9.33;9.33;;;;;;;;5077118;28;45566;-45
2023/10/06 03:44:06;;;;;;;;;13.33;12.00;;;;;;;;5081089;27;47108;-44
2023/10/06 03:46:38;;;;;;;;;13.67;7.67;;;;;;;;5081938;27;45517;-45
2023/10/06 03:49:04;;;;;;;;;13.00;12.00;;;;;;;;5078966;27;45454;-44
2023/10/06 03:51:29;;;;;;;;;15.00;12.00;;;;;;;;5080503;27;46115;-47
2023/10/06 03:53:56;;;;;;;;;9.67;9.33;;;;;;;;5077289;27;46366;-44
2023/10/06 03:56:21;;;;;;;;;11.00;10.33;;;;;;;;5071205;27;45489;-43
2023/10/06 03:58:46;;;;;;;;;12.33;10.67;;;;;;;;5075590;27;45318;-44
2023/10/06 04:01:16;;;;;;;;;9.33;8.33;;;;;;;;5077533;28;45296;-43
2023/10/06 04:03:41;;;;;;;;;13.67;11.00;;;;;;;;5074720;27;47012;-44
2023/10/06 04:06:12;;;;;;;;;13.33;11.00;;;;;;;;5081009;27;45361;-44
2023/10/06 04:08:37;;;;;;;;;14.67;12.00;;;;;;;;5079779;27;45483;-44
2023/10/06 04:11:04;;;;;;;;;12.33;10.67;;;;;;;;5080953;27;45250;-43
2023/10/06 04:13:30;;;;;;;;;10.67;9.33;;;;;;;;5079593;27;46150;-44
2023/10/06 04:15:57;;;;;;;;;9.67;9.67;;;;;;;;5080544;27;45242;-42
2023/10/06 04:18:23;;;;;;;;;12.67;11.00;;;;;;;;5078356;27;45306;-42
2023/10/06 04:20:49;;;;;;;;;6.00;5.00;;;;;;;;5078616;27;45207;-44
2023/10/06 04:23:16;;;;;;;;;7.33;7.00;;;;;;;;5077999;27;46175;-43
2023/10/06 04:25:42;;;;;;;;;15.67;11.67;;;;;;;;5080100;28;45456;-43
2023/10/06 04:28:08;;;;;;;;;11.67;10.33;;;;;;;;5078696;27;45369;-44
2023/10/06 04:30:37;;;;;;;;;0.67;0.00;;;;;;;;5079088;27;45391;-44
2023/10/06 04:33:04;;;;;;;;;12.33;12.33;;;;;;;;5070581;28;46902;-42
2023/10/06 04:35:32;;;;;;;;;10.33;10.33;;;;;;;;5076547;27;45400;-42
2023/10/06 04:37:57;;;;;;;;;11.00;10.33;;;;;;;;5078274;27;45510;-43
2023/10/06 04:40:23;;;;;;;;;11.00;9.33;;;;;;;;5080693;27;45648;-43
2023/10/06 04:42:48;;;;;;;;;15.67;12.33;;;;;;;;5077695;27;46132;-43
2023/10/06 04:45:14;;;;;;;;;13.67;12.00;;;;;;;;5076993;27;45311;-43
2023/10/06 04:47:42;;;;;;;;;13.00;12.67;;;;;;;;5077486;27;45323;-45
2023/10/06 04:50:09;;;;;;;;;13.00;9.67;;;;;;;;5079648;28;45417;-44
2023/10/06 04:52:35;;;;;;;;;15.00;12.67;;;;;;;;5077285;28;46295;-43
2023/10/06 04:55:03;;;;;;;;;10.67;10.67;;;;;;;;5079083;28;45254;-43
2023/10/06 04:57:28;;;;;;;;;11.67;9.67;;;;;;;;5076828;28;45580;-43
2023/10/06 04:59:53;;;;;;;;;19.67;15.67;;;;;;;;5077361;28;45350;-43
2023/10/06 05:02:18;;;;;;;;;18.67;14.00;;;;;;;;5077852;28;45353;-44
2023/10/06 05:04:44;;;;;;;;;14.00;9.00;;;;;;;;5077062;27;45433;-43
2023/10/06 05:07:09;;;;;;;;;15.33;14.67;;;;;;;;5079581;28;45457;-43
2023/10/06 05:09:34;;;;;;;;;11.67;11.67;;;;;;;;5074849;27;45463;-42
2023/10/06 05:11:59;;;;;;;;;11.67;11.67;;;;;;;;5078693;27;45359;-44
2023/10/06 05:14:25;;;;;;;;;15.33;10.67;;;;;;;;5075806;28;45350;-42
2023/10/06 05:16:51;;;;;;;;;16.00;13.00;;;;;;;;5078347;28;45152;-42
2023/10/06 05:19:17;;;;;;;;;13.33;10.33;;;;;;;;5076185;27;45586;-45
2023/10/06 05:21:42;;;;;;;;;17.33;14.00;;;;;;;;5077530;27;45271;-44
2023/10/06 05:24:08;;;;;;;;;14.67;12.67;;;;;;;;5071149;27;46839;-44
2023/10/06 05:26:34;;;;;;;;;15.67;12.00;;;;;;;;5075031;28;45494;-44
2023/10/06 05:28:59;;;;;;;;;14.00;12.00;;;;;;;;5076527;27;45461;-43
2023/10/06 05:31:24;;;;;;;;;16.00;15.00;;;;;;;;5078329;28;46207;-43
2023/10/06 05:33:51;;;;;;;;;11.33;11.33;;;;;;;;5076042;27;45405;-43
2023/10/06 05:36:16;;;;;;;;;12.67;10.67;;;;;;;;5076583;27;45652;-45
2023/10/06 05:38:41;;;;;;;;;11.33;9.33;;;;;;;;5070145;28;45675;-44
2023/10/06 05:41:11;;;;;;;;;12.00;12.00;;;;;;;;5076297;28;46708;-44
2023/10/06 05:43:36;;;;;;;;;11.00;11.00;;;;;;;;5077168;28;45396;-44
2023/10/06 05:46:03;;;;;;;;;14.33;13.00;;;;;;;;5076686;27;45468;-43
2023/10/06 05:48:30;;;;;;;;;15.67;12.67;;;;;;;;5077326;27;45714;-43
2023/10/06 05:51:04;;;;;;;;;14.67;14.67;;;;;;;;5078668;27;45416;-45
2023/10/06 05:53:34;;;;;;;;;15.67;13.33;;;;;;;;5078146;27;45420;-45
2023/10/06 05:56:02;;;;;;;;;14.67;12.33;;;;;;;;5078096;27;45490;-45
2023/10/06 05:58:29;;;;;;;;;16.00;15.00;;;;;;;;5072139;27;45547;-43
2023/10/06 06:01:05;;;;;;;;;15.67;14.33;;;;;;;;5077148;28;47139;-46
2023/10/06 06:03:30;;;;;;;;;16.33;15.00;;;;;;;;5075834;27;45515;-43
2023/10/06 06:05:57;;;;;;;;;20.33;13.67;;;;;;;;5077664;27;45448;-44
2023/10/06 06:08:23;;;;;;;;;19.00;14.67;;;;;;;;5076313;28;45369;-44
2023/10/06 06:10:48;;;;;;;;;17.33;15.33;;;;;;;;5076178;28;46187;-44
2023/10/06 06:13:14;;;;;;;;;12.67;12.00;;;;;;;;5076064;27;45429;-47
2023/10/06 06:15:39;;;;;;;;;15.33;13.67;;;;;;;;5068457;28;45346;-45
2023/10/06 06:18:05;;;;;;;;;16.33;12.00;;;;;;;;5064677;28;45355;-44
2023/10/06 06:20:30;;;;;;;;;14.67;13.00;;;;;;;;5077643;28;46889;-42
2023/10/06 06:22:59;;;;;;;;;14.33;12.33;;;;;;;;5078030;27;45394;-44
2023/10/06 06:25:26;;;;;;;;;12.33;12.33;;;;;;;;5076870;28;45707;-43
2023/10/06 06:27:54;;;;;;;;;12.33;11.33;;;;;;;;5077978;27;45430;-44
2023/10/06 06:30:20;;;;;;;;;15.33;13.67;;;;;;;;5077071;27;46850;-42
2023/10/06 06:32:48;;;;;;;;;16.33;12.67;;;;;;;;5079432;27;45561;-45
2023/10/06 06:35:13;;;;;;;;;17.33;13.00;;;;;;;;5075141;27;45346;-46
2023/10/06 06:37:41;;;;;;;;;19.67;14.67;;;;;;;;5079937;28;45456;-44
2023/10/06 06:40:09;;;;;;;;;18.00;16.33;;;;;;;;5080679;28;46161;-47
2023/10/06 06:42:35;;;;;;;;;16.00;14.00;;;;;;;;5081127;27;45233;-44
2023/10/06 06:45:01;;;;;;;;;20.67;14.67;;;;;;;;5080162;27;45159;-45
2023/10/06 06:47:26;;;;;;;;;13.33;12.33;;;;;;;;5081366;27;45535;-46
2023/10/06 06:49:51;;;;;;;;;19.00;18.00;;;;;;;;5080548;27;46064;-44
2023/10/06 06:52:16;;;;;;;;;19.33;15.67;;;;;;;;5081373;28;45335;-44
2023/10/06 06:54:46;;;;;;;;;13.00;13.00;;;;;;;;5080145;28;45445;-46
2023/10/06 06:57:12;;;;;;;;;17.67;15.33;;;;;;;;5081071;27;45525;-46
2023/10/06 06:59:38;;;;;;;;;21.33;14.67;;;;;;;;5079228;28;46233;-47
2023/10/06 07:02:04;;;;;;;;;15.67;14.00;;;;;;;;5079961;27;45798;-47
2023/10/06 07:04:30;;;;;;;;;17.67;14.33;;;;;;;;5079900;28;45261;-48
2023/10/06 07:06:55;;;;;;;;;19.67;18.00;;;;;;;;5080153;27;45533;-44
2023/10/06 07:09:22;;;;;;;;;16.00;15.67;;;;;;;;5080488;28;46293;-45
2023/10/06 07:11:47;;;;;;;;;20.00;17.33;;;;;;;;5080361;28;45453;-45
2023/10/06 07:14:14;;;;;;;;;17.67;14.33;;;;;;;;5071716;28;45247;-45
2023/10/06 07:16:42;;;;;;;;;23.00;18.33;;;;;;;;5081055;28;45473;-44
2023/10/06 07:19:07;;;;;;;;;16.67;14.00;;;;;;;;5079861;27;46928;-47
2023/10/06 07:21:32;;;;;;;;;13.33;11.33;;;;;;;;5075460;27;46730;-46
2023/10/06 07:23:57;;;;;;;;;12.67;12.67;;;;;;;;5078410;27;45391;-45
2023/10/06 07:26:23;;;;;;;;;17.00;14.33;;;;;;;;5074535;27;45428;-45
2023/10/06 07:28:56;;;;;;;;;19.67;18.67;;;;;;;;5075881;27;46220;-44
2023/10/06 07:31:24;;;;;;;;;17.33;15.67;;;;;;;;5072070;27;45413;-44
2023/10/06 07:33:52;;;;;;;;;18.67;14.67;;;;;;;;5078250;27;46075;-46
2023/10/06 07:36:18;;;;;;;;;23.33;18.00;;;;;;;;5078198;27;45503;-45
2023/10/06 07:38:43;;;;;;;;;17.33;14.33;;;;;;;;5071293;27;45527;-44
2023/10/06 07:41:10;;;;;;;;;19.00;17.00;;;;;;;;5079169;27;45505;-44
2023/10/06 07:43:35;;;;;;;;;20.00;15.67;;;;;;;;5076511;27;45513;-44
2023/10/06 07:46:07;;;;;;;;;17.50;17.50;;;;;;;;5072387;27;45342;-44
2023/10/06 07:48:36;;;;;;;;;25.00;19.00;;;;;;;;5075205;27;45501;-45
2023/10/06 07:51:06;;;;;;;;;27.33;24.00;;;;;;;;5076851;27;45468;-45
2023/10/06 07:53:31;;;;;;;;;20.33;16.67;;;;;;;;5072605;27;45416;-44
2023/10/06 07:56:08;;;;;;;;;25.67;21.00;;;;;;;;5074286;27;45346;-44
2023/10/06 07:58:37;;;;;;;;;20.67;17.67;;;;;;;;5077016;27;46152;-44
2023/10/06 08:01:05;;;;;;;;;22.33;16.67;;;;;;;;5079211;27;45427;-44
2023/10/06 08:03:30;;;;;;;;;17.67;16.33;;;;;;;;5081251;27;45361;-44
2023/10/06 08:05:59;;;;;;;;;17.67;16.67;;;;;;;;5074231;27;45423;-43
2023/10/06 08:08:25;;;;;;;;;19.00;17.67;;;;;;;;5077524;27;47560;-44
2023/10/06 08:10:52;;;;;;;;;23.33;17.67;;;;;;;;5073154;27;45522;-45
2023/10/06 08:13:18;;;;;;;;;26.00;21.33;;;;;;;;5071421;27;45549;-44
2023/10/06 08:15:44;;;;;;;;;22.00;18.67;;;;;;;;5075393;27;45460;-43
2023/10/06 08:18:10;;;;;;;;;19.00;18.00;;;;;;;;5074872;27;46415;-43
2023/10/06 08:20:39;;;;;;;;;18.33;16.67;;;;;;;;5071494;27;45715;-44
2023/10/06 08:23:06;;;;;;;;;22.33;18.67;;;;;;;;5074677;27;45536;-44
2023/10/06 08:25:32;;;;;;;;;25.00;23.33;;;;;;;;5077637;27;45416;-45
2023/10/06 08:27:57;;;;;;;;;23.00;20.67;;;;;;;;5072563;27;46245;-44
2023/10/06 08:30:22;;;;;;;;;20.67;20.67;;;;;;;;5075301;27;45360;-44
2023/10/06 08:32:49;;;;;;;;;16.00;14.67;;;;;;;;5079874;27;45331;-48
2023/10/06 08:35:15;;;;;;;;;22.00;18.00;;;;;;;;5078633;27;46822;-46
2023/10/06 08:37:41;;;;;;;;;19.33;17.00;;;;;;;;5076484;27;46080;-44
2023/10/06 08:40:07;;;;;;;;;25.00;21.00;;;;;;;;5078544;27;45516;-44
2023/10/06 08:42:34;;;;;;;;;21.67;17.00;;;;;;;;5074341;27;45527;-46
2023/10/06 08:45:00;;;;;;;;;19.33;14.33;;;;;;;;5078480;27;45433;-48
2023/10/06 08:47:26;;;;;;;;;22.67;12.00;;;;;;;;5076440;27;45442;-44
2023/10/06 08:49:53;;;;;;;;;21.00;18.67;;;;;;;;5076596;28;45476;-46
2023/10/06 08:52:18;;;;;;;;;20.67;16.67;;;;;;;;5076982;27;45476;-48
2023/10/06 08:54:45;;;;;;;;;20.67;17.00;;;;;;;;5079313;27;45492;-46
2023/10/06 08:57:11;;;;;;;;;21.00;17.00;;;;;;;;5076302;27;45512;-45
2023/10/06 08:59:37;;;;;;;;;21.00;18.33;;;;;;;;5078496;27;45385;-46
2023/10/06 09:02:02;;;;;;;;;15.67;15.67;;;;;;;;5076519;27;45397;-45
2023/10/06 09:04:35;;;;;;;;;19.67;15.33;;;;;;;;5071552;27;45670;-44
2023/10/06 09:07:11;;;;;;;;;18.67;17.00;;;;;;;;5072606;27;46870;-43
2023/10/06 09:09:37;;;;;;;;;16.67;15.67;;;;;;;;5071619;27;45294;-44
2023/10/06 09:12:03;;;;;;;;;18.00;17.00;;;;;;;;5078562;27;45787;-45
2023/10/06 09:14:28;;;;;;;;;23.67;19.33;;;;;;;;5076394;27;45347;-45
2023/10/06 09:16:57;;;;;;;;;20.67;18.00;;;;;;;;5072254;27;46374;-45
2023/10/06 09:19:22;;;;;;;;;17.67;14.33;;;;;;;;5071939;27;45421;-43
2023/10/06 09:22:08;;;;;;;;;14.33;13.00;;;;;;;;5069755;27;45306;-45
2023/10/06 09:24:34;;;;;;;;;12.00;9.33;;;;;;;;5069103;27;45660;-44
2023/10/06 09:27:07;;;;;;;;;14.00;11.33;;;;;;;;5077558;27;45631;-47
2023/10/06 09:29:38;;;;;;;;;12.33;11.00;;;;;;;;5075614;27;45604;-46
2023/10/06 09:32:19;;;;;;;;;19.00;13.67;;;;;;;;5077120;27;45512;-44
2023/10/06 09:34:44;;;;;;;;;12.67;11.33;;;;;;;;5091543;27;45458;-47
2023/10/06 09:37:18;;;;;;;;;22.00;19.67;;;;;;;;5077496;27;46118;-45
2023/10/06 09:39:45;;;;;;;;;14.67;12.00;;;;;;;;5075446;27;45527;-46
2023/10/06 09:42:11;;;;;;;;;12.00;9.67;;;;;;;;5076915;27;45531;-46
2023/10/06 09:44:38;;;;;;;;;13.00;10.33;;;;;;;;5072611;27;45631;-45
2023/10/06 09:47:04;;;;;;;;;12.67;12.67;;;;;;;;5075420;27;45535;-45
2023/10/06 09:49:31;;;;;;;;;11.00;9.33;;;;;;;;5075559;27;45532;-48
2023/10/06 09:52:01;;;;;;;;;12.00;8.33;;;;;;;;5077147;27;45457;-46
2023/10/06 09:54:26;;;;;;;;;8.75;8.25;;;;;;;;5076435;27;45287;-49
2023/10/06 09:56:54;;;;;;;;;8.67;8.67;;;;;;;;5074294;27;46175;-46
2023/10/06 09:59:21;;;;;;;;;8.67;8.33;;;;;;;;5073683;28;45802;-49
2023/10/06 10:01:47;;;;;;;;;14.00;11.00;;;;;;;;5071657;27;45420;-46
2023/10/06 10:04:12;;;;;;;;;11.75;9.25;;;;;;;;5076540;27;45468;-46
2023/10/06 10:06:43;;;;;;;;;10.50;9.00;;;;;;;;5074471;27;45993;-45
2023/10/06 10:09:08;;;;;;;;;9.75;8.75;;;;;;;;5077075;27;45329;-45
2023/10/06 10:11:39;;;;;;;;;8.00;8.00;;;;;;;;5065735;27;45700;-45
2023/10/06 10:14:10;;;;;;;;;13.50;11.00;;;;;;;;5071007;27;45523;-45
2023/10/06 10:16:45;;;;;;;;;13.75;11.25;;;;;;;;5082905;27;46319;-46
2023/10/06 10:19:12;;;;;;;;;10.75;9.25;;;;;;;;5071575;27;45549;-48
2023/10/06 10:21:38;;;;;;;;;10.25;8.00;;;;;;;;5081683;27;45422;-45
2023/10/06 10:24:05;;;;;;;;;9.00;9.00;;;;;;;;5075586;27;45331;-46
2023/10/06 10:26:31;;;;;;;;;8.00;8.00;;;;;;;;5081683;27;47041;-47
2023/10/06 10:29:05;;;;;;;;;12.75;9.75;;;;;;;;5074899;27;45306;-45
2023/10/06 10:31:36;;;;;;;;;10.50;8.50;;;;;;;;5081859;27;45329;-45
2023/10/06 10:34:01;;;;;;;;;10.50;9.50;;;;;;;;5085766;27;45405;-49
2023/10/06 10:36:27;;;;;;;;;11.25;10.00;;;;;;;;5082804;27;46164;-45
2023/10/06 10:38:56;;;;;;;;;12.00;9.25;;;;;;;;5085104;27;45625;-44
2023/10/06 10:41:22;;;;;;;;;10.75;9.50;;;;;;;;5082209;27;45434;-46
2023/10/06 10:43:48;;;;;;;;;7.50;6.00;;;;;;;;5077694;27;45384;-47
2023/10/06 10:46:14;;;;;;;;;9.75;8.50;;;;;;;;5088422;27;45369;-46
2023/10/06 10:48:47;;;;;;;;;10.50;10.50;;;;;;;;5088080;27;45646;-46
2023/10/06 10:51:13;;;;;;;;;11.75;7.50;;;;;;;;5085513;27;45323;-43
2023/10/06 10:53:41;;;;;;;;;11.50;9.50;;;;;;;;5080800;27;45477;-45
2023/10/06 10:56:13;;;;;;;;;6.50;6.50;;;;;;;;5093441;27;47068;-46
2023/10/06 10:58:44;;;;;;;;;8.25;7.50;;;;;;;;5084946;27;45709;-46
2023/10/06 11:01:24;;;;;;;;;8.50;8.50;;;;;;;;5081858;27;45490;-48
2023/10/06 11:04:08;;;;;;;;;8.75;8.75;;;;;;;;5078226;27;45784;-45
2023/10/06 11:06:34;;;;;;;;;9.00;7.75;;;;;;;;5078566;27;46953;-47
2023/10/06 11:09:09;;;;;;;;;11.00;10.00;;;;;;;;5082168;27;45455;-48
2023/10/06 11:11:38;;;;;;;;;15.00;13.00;;;;;;;;5079948;27;45492;-45
2023/10/06 11:14:03;;;;;;;;;10.50;8.75;;;;;;;;5080897;27;45405;-47
2023/10/06 11:16:29;;;;;;;;;11.75;10.75;;;;;;;;5080860;27;46414;-47
2023/10/06 11:18:56;;;;;;;;;9.00;8.75;;;;;;;;5080753;27;45544;-46
2023/10/06 11:21:25;;;;;;;;;8.75;5.50;;;;;;;;5084214;27;45330;-48
2023/10/06 11:23:50;;;;;;;;;8.00;7.50;;;;;;;;5080842;27;45491;-45
2023/10/06 11:26:26;;;;;;;;;8.00;6.50;;;;;;;;5082410;27;45470;-47
2023/10/06 11:28:51;;;;;;;;;8.00;5.75;;;;;;;;5081747;27;45565;-47
2023/10/06 11:31:16;;;;;;;;;9.75;8.00;;;;;;;;5079291;27;45279;-44
2023/10/06 11:33:42;;;;;;;;;10.00;6.75;;;;;;;;5080431;27;45352;-45
2023/10/06 11:36:07;;;;;;;;;8.00;8.00;;;;;;;;5084045;27;45420;-53
2023/10/06 11:38:32;;;;;;;;;13.00;11.25;;;;;;;;5092751;27;45420;-46
2023/10/06 11:40:58;;;;;;;;;6.50;6.50;;;;;;;;5079955;27;45416;-46
2023/10/06 11:43:23;;;;;;;;;10.75;7.00;;;;;;;;5078456;27;45445;-47
2023/10/06 11:45:59;;;;;;;;;8.00;7.00;;;;;;;;5074657;27;46209;-50
2023/10/06 11:48:31;;;;;;;;;7.75;6.00;;;;;;;;5077828;27;45324;-47
2023/10/06 11:51:00;;;;;;;;;7.50;7.25;;;;;;;;5078893;27;45402;-43
2023/10/06 11:53:26;;;;;;;;;9.25;7.00;;;;;;;;5077295;27;45390;-48
2023/10/06 11:55:53;;;;;;;;;8.00;6.25;;;;;;;;5073067;28;46945;-46
2023/10/06 11:58:30;;;;;;;;;4.25;4.00;;;;;;;;5073401;27;45342;-42
2023/10/06 12:00:55;;;;;;;;;5.75;4.50;;;;;;;;5076298;27;45462;-42
2023/10/06 12:03:32;;;;;;;;;4.25;3.25;;;;;;;;5077343;27;45412;-43
2023/10/06 12:05:57;;;;;;;;;7.00;6.50;;;;;;;;5075769;27;45588;-44
2023/10/06 12:08:22;;;;;;;;;6.50;4.50;;;;;;;;5078756;27;45557;-44
2023/10/06 12:10:50;;;;;;;;;7.00;7.00;;;;;;;;5079026;27;45377;-44
2023/10/06 12:13:15;;;;;;;;;5.00;4.50;;;;;;;;5076234;27;45307;-45
2023/10/06 12:15:44;;;;;;;;;3.25;3.25;;;;;;;;5075034;27;46270;-44
2023/10/06 12:18:10;;;;;;;;;8.75;5.25;;;;;;;;5071034;28;45370;-46
2023/10/06 12:20:35;;;;;;;;;3.25;2.00;;;;;;;;5074696;27;45438;-45
2023/10/06 12:23:00;;;;;;;;;5.75;5.75;;;;;;;;5075911;27;45619;-45
2023/10/06 12:25:26;;;;;;;;;5.75;5.00;;;;;;;;5076304;27;46896;-44
2023/10/06 12:27:52;;;;;;;;;4.75;3.75;;;;;;;;5072865;27;45504;-47
2023/10/06 12:30:17;;;;;;;;;7.75;4.00;;;;;;;;5073119;27;47029;-44
2023/10/06 12:32:45;;;;;;;;;4.25;4.25;;;;;;;;5073762;27;45819;-45
2023/10/06 12:35:10;;;;;;;;;3.75;3.00;;;;;;;;5081808;27;46173;-46
2023/10/06 12:37:40;;;;;;;;;5.75;5.00;;;;;;;;5080734;27;45400;-43
2023/10/06 12:40:08;;;;;;;;;5.25;4.75;;;;;;;;5078102;27;45515;-44
2023/10/06 12:42:34;;;;;;;;;2.75;2.75;;;;;;;;5074858;27;45422;-44
2023/10/06 12:45:00;;;;;;;;;4.50;3.25;;;;;;;;5072160;27;45512;-45
2023/10/06 12:47:26;;;;;;;;;2.00;2.00;;;;;;;;5074868;27;45490;-46
2023/10/06 12:49:51;;;;;;;;;4.50;4.25;;;;;;;;5077900;27;45340;-44
2023/10/06 12:52:17;;;;;;;;;6.00;6.00;;;;;;;;5076413;27;45358;-42
2023/10/06 12:54:44;;;;;;;;;5.75;4.00;;;;;;;;5074194;27;46062;-44
2023/10/06 12:57:09;;;;;;;;;3.50;3.50;;;;;;;;5078009;27;45362;-47
2023/10/06 12:59:34;;;;;;;;;3.25;3.25;;;;;;;;5065978;27;45538;-44
2023/10/06 13:02:03;;;;;;;;;4.50;4.25;;;;;;;;5073390;27;45479;-45
2023/10/06 13:04:29;;;;;;;;;3.00;3.00;;;;;;;;5075206;27;45375;-43
2023/10/06 13:06:54;;;;;;;;;4.75;4.50;;;;;;;;5077847;27;45437;-43
2023/10/06 13:09:22;;;;;;;;;6.50;5.75;;;;;;;;5075051;27;45590;-42
2023/10/06 13:11:47;;;;;;;;;2.75;2.75;;;;;;;;5077861;27;45339;-43
2023/10/06 13:14:15;;;;;;;;;4.00;3.00;;;;;;;;5076557;27;46060;-46
2023/10/06 13:16:48;;;;;;;;;5.50;4.25;;;;;;;;5077876;27;45485;-43
2023/10/06 13:19:13;;;;;;;;;3.50;3.50;;;;;;;;5068194;27;45434;-48
2023/10/06 13:21:38;;;;;;;;;5.00;4.00;;;;;;;;5072964;27;45747;-44
2023/10/06 13:24:05;;;;;;;;;3.00;3.00;;;;;;;;5077345;27;46412;-44
2023/10/06 13:26:34;;;;;;;;;4.25;3.00;;;;;;;;5077773;27;46602;-45
2023/10/06 13:28:59;;;;;;;;;4.00;4.00;;;;;;;;5069295;27;45376;-44
2023/10/06 13:31:25;;;;;;;;;6.25;3.50;;;;;;;;5075698;27;45913;-44
2023/10/06 13:33:51;;;;;;;;;8.50;4.00;;;;;;;;5073213;27;45605;-44
2023/10/06 13:36:17;;;;;;;;;3.25;3.25;;;;;;;;5075151;27;45383;-44
2023/10/06 13:38:42;;;;;;;;;5.00;3.75;;;;;;;;5070935;27;45541;-45
2023/10/06 13:41:08;;;;;;;;;5.00;3.75;;;;;;;;5072373;27;45407;-43
2023/10/06 13:43:34;;;;;;;;;4.00;3.25;;;;;;;;5073810;27;46297;-45
2023/10/06 13:45:59;;;;;;;;;4.75;2.75;;;;;;;;5080038;27;46213;-43
2023/10/06 13:48:26;;;;;;;;;3.00;3.00;;;;;;;;5077881;27;45754;-45
2023/10/06 13:50:52;;;;;;;;;6.00;3.75;;;;;;;;5077032;27;45471;-45
2023/10/06 13:53:18;;;;;;;;;6.00;4.75;;;;;;;;5074407;27;46270;-46
2023/10/06 13:55:44;;;;;;;;;4.00;4.00;;;;;;;;5082908;27;45475;-43
2023/10/06 13:58:09;;;;;;;;;4.50;4.25;;;;;;;;5081251;27;45650;-43
2023/10/06 14:00:41;;;;;;;;;4.00;4.00;;;;;;;;5082917;27;45759;-43
2023/10/06 14:03:07;;;;;;;;;2.50;2.50;;;;;;;;5080817;27;45785;-43
2023/10/06 14:05:33;;;;;;;;;2.75;2.75;;;;;;;;5074645;27;45512;-44
2023/10/06 14:08:04;;;;;;;;;3.50;2.00;;;;;;;;5083204;27;45413;-44
2023/10/06 14:10:31;;;;;;;;;3.50;3.50;;;;;;;;5081798;27;45891;-45
2023/10/06 14:15:41;;;;;;;;;3.00;3.00;;;;;;;;5078922;27;45385;-45
2023/10/06 14:18:12;;;;;;;;;3.25;3.25;;;;;;;;5073846;27;45398;-46
2023/10/06 14:20:38;;;;;;;;;5.25;3.25;;;;;;;;5080655;27;45583;-44
2023/10/06 14:23:03;;;;;;;;;3.25;3.25;;;;;;;;5077778;27;45499;-43
2023/10/06 14:25:33;;;;;;;;;3.50;2.50;;;;;;;;5080528;27;45453;-47
2023/10/06 14:27:58;;;;;;;;;3.75;3.25;;;;;;;;5080774;27;45625;-43
2023/10/06 14:30:25;;;;;;;;;3.00;2.25;;;;;;;;5082054;27;45366;-43
2023/10/06 14:35:45;;;;;;;;;4.00;3.00;;;;;;;;5084198;27;45318;-45